sensor_id;sensor_type;location;lat;lon;timestamp;pressure;altitude;pressure_sealevel;temperature;humidity
12951;BME280;6540;50.858;7.232;2022-11-24T00:01:15;51790.00;;;-142.34;28.71
12951;BME280;6540;50.858;7.232;2022-11-24T00:03:42;51846.47;;;-142.34;27.95
12951;BME280;6540;50.858;7.232;2022-11-24T00:06:09;51826.31;;;-142.34;27.34
12951;BME280;6540;50.858;7.232;2022-11-24T00:08:36;51806.13;;;-142.34;27.02
12951;BME280;6540;50.858;7.232;2022-11-24T00:11:10;51816.22;;;-142.34;28.00
12951;BME280;6540;50.858;7.232;2022-11-24T00:13:36;51844.47;;;-142.34;28.48
12951;BME280;6540;50.858;7.232;2022-11-24T00:16:12;51826.31;;;-142.34;28.20
12951;BME280;6540;50.858;7.232;2022-11-24T00:18:39;51814.19;;;-142.34;27.64
12951;BME280;6540;50.858;7.232;2022-11-24T00:21:05;51820.25;;;-142.34;27.85
12951;BME280;6540;50.858;7.232;2022-11-24T00:23:31;51812.19;;;-142.34;27.92
12951;BME280;6540;50.858;7.232;2022-11-24T00:26:16;51830.34;;;-142.34;27.88
12951;BME280;6540;50.858;7.232;2022-11-24T00:28:43;51826.31;;;-142.34;28.72
12951;BME280;6540;50.858;7.232;2022-11-24T00:31:26;51854.53;;;-142.34;28.26
12951;BME280;6540;50.858;7.232;2022-11-24T00:33:54;51806.13;;;-142.34;27.69
12951;BME280;6540;50.858;7.232;2022-11-24T00:36:21;51832.34;;;-142.34;28.30
12951;BME280;6540;50.858;7.232;2022-11-24T00:38:52;51830.34;;;-142.34;28.46
12951;BME280;6540;50.858;7.232;2022-11-24T00:41:18;51838.41;;;-142.34;28.46
12951;BME280;6540;50.858;7.232;2022-11-24T00:43:43;51842.44;;;-142.34;27.81
12951;BME280;6540;50.858;7.232;2022-11-24T00:46:09;51820.25;;;-142.34;27.62
12951;BME280;6540;50.858;7.232;2022-11-24T00:48:34;51854.53;;;-142.34;27.87
12951;BME280;6540;50.858;7.232;2022-11-24T00:51:01;51840.41;;;-142.34;28.83
12951;BME280;6540;50.858;7.232;2022-11-24T00:53:27;51802.09;;;-142.34;27.61
12951;BME280;6540;50.858;7.232;2022-11-24T00:55:53;51856.56;;;-142.34;28.25
12951;BME280;6540;50.858;7.232;2022-11-24T00:58:19;51870.69;;;-142.34;28.89
12951;BME280;6540;50.858;7.232;2022-11-24T01:00:45;51850.50;;;-142.34;27.81
12951;BME280;6540;50.858;7.232;2022-11-24T01:03:12;51830.34;;;-142.34;28.28
12951;BME280;6540;50.858;7.232;2022-11-24T01:05:38;51840.41;;;-142.34;28.92
12951;BME280;6540;50.858;7.232;2022-11-24T01:08:04;51860.59;;;-142.34;28.17
12951;BME280;6540;50.858;7.232;2022-11-24T01:10:30;51810.16;;;-142.34;28.66
12951;BME280;6540;50.858;7.232;2022-11-24T01:12:56;51826.31;;;-142.34;28.99
12951;BME280;6540;50.858;7.232;2022-11-24T01:15:21;51818.22;;;-142.34;28.68
12951;BME280;6540;50.858;7.232;2022-11-24T01:17:46;51864.63;;;-142.34;28.05
12951;BME280;6540;50.858;7.232;2022-11-24T01:20:12;51848.50;;;-142.34;28.63
12951;BME280;6540;50.858;7.232;2022-11-24T01:22:38;51862.63;;;-142.34;27.63
12951;BME280;6540;50.858;7.232;2022-11-24T01:25:07;51862.63;;;-142.34;27.78
12951;BME280;6540;50.858;7.232;2022-11-24T01:27:33;51868.66;;;-142.34;27.63
12951;BME280;6540;50.858;7.232;2022-11-24T01:29:59;51818.22;;;-142.34;28.19
12951;BME280;6540;50.858;7.232;2022-11-24T01:32:24;51838.41;;;-142.34;28.10
12951;BME280;6540;50.858;7.232;2022-11-24T01:34:50;51846.47;;;-142.34;28.27
12951;BME280;6540;50.858;7.232;2022-11-24T01:37:15;51842.44;;;-142.34;27.52
12951;BME280;6540;50.858;7.232;2022-11-24T01:39:40;51834.38;;;-142.34;28.32
12951;BME280;6540;50.858;7.232;2022-11-24T01:42:06;51850.50;;;-142.34;28.29
12951;BME280;6540;50.858;7.232;2022-11-24T01:44:32;51824.28;;;-142.34;27.61
12951;BME280;6540;50.858;7.232;2022-11-24T01:46:59;51888.84;;;-142.34;28.05
12951;BME280;6540;50.858;7.232;2022-11-24T01:49:35;51810.16;;;-142.34;27.52
12951;BME280;6540;50.858;7.232;2022-11-24T01:52:11;51816.22;;;-142.34;27.73
12951;BME280;6540;50.858;7.232;2022-11-24T01:54:42;51830.34;;;-142.34;27.17
12951;BME280;6540;50.858;7.232;2022-11-24T01:57:19;51848.50;;;-142.34;27.22
12951;BME280;6540;50.858;7.232;2022-11-24T01:59:48;51828.31;;;-142.34;27.68
12951;BME280;6540;50.858;7.232;2022-11-24T02:02:16;51830.34;;;-142.34;28.67
12951;BME280;6540;50.858;7.232;2022-11-24T02:04:42;51830.34;;;-142.34;28.58
12951;BME280;6540;50.858;7.232;2022-11-24T02:07:08;51812.19;;;-142.34;27.63
12951;BME280;6540;50.858;7.232;2022-11-24T02:09:48;51858.56;;;-142.34;28.44
12951;BME280;6540;50.858;7.232;2022-11-24T02:12:15;51852.53;;;-142.34;28.19
12951;BME280;6540;50.858;7.232;2022-11-24T02:14:42;51826.31;;;-142.34;27.96
12951;BME280;6540;50.858;7.232;2022-11-24T02:17:08;51870.69;;;-142.34;27.51
12951;BME280;6540;50.858;7.232;2022-11-24T02:19:47;51876.72;;;-142.34;28.23
12951;BME280;6540;50.858;7.232;2022-11-24T02:28:21;51830.34;;;-142.34;27.31
12951;BME280;6540;50.858;7.232;2022-11-24T02:30:48;51842.44;;;-142.34;28.96
12951;BME280;6540;50.858;7.232;2022-11-24T02:33:14;51824.28;;;-142.34;28.14
12951;BME280;6540;50.858;7.232;2022-11-24T02:35:40;51858.56;;;-142.34;28.96
12951;BME280;6540;50.858;7.232;2022-11-24T02:38:05;51878.75;;;-142.34;28.74
12951;BME280;6540;50.858;7.232;2022-11-24T02:40:31;51874.72;;;-142.34;28.33
12951;BME280;6540;50.858;7.232;2022-11-24T02:43:04;51812.19;;;-142.34;28.57
12951;BME280;6540;50.858;7.232;2022-11-24T02:45:32;51834.38;;;-142.34;27.34
12951;BME280;6540;50.858;7.232;2022-11-24T02:47:57;51846.47;;;-142.34;28.38
12951;BME280;6540;50.858;7.232;2022-11-24T02:50:23;51806.13;;;-142.34;27.32
12951;BME280;6540;50.858;7.232;2022-11-24T02:52:48;51822.25;;;-142.34;28.83
12951;BME280;6540;50.858;7.232;2022-11-24T02:55:14;51810.16;;;-142.34;28.53
12951;BME280;6540;50.858;7.232;2022-11-24T02:57:39;51814.19;;;-142.34;28.35
12951;BME280;6540;50.858;7.232;2022-11-24T03:00:05;51822.25;;;-142.34;28.22
12951;BME280;6540;50.858;7.232;2022-11-24T03:02:30;51828.31;;;-142.34;27.75
12951;BME280;6540;50.858;7.232;2022-11-24T03:04:56;51814.19;;;-142.34;28.27
12951;BME280;6540;50.858;7.232;2022-11-24T03:07:21;51814.19;;;-142.34;27.95
12951;BME280;6540;50.858;7.232;2022-11-24T03:09:47;51826.31;;;-142.34;27.50
12951;BME280;6540;50.858;7.232;2022-11-24T03:12:12;51822.25;;;-142.34;27.94
12951;BME280;6540;50.858;7.232;2022-11-24T03:14:38;51806.13;;;-142.34;28.84
12951;BME280;6540;50.858;7.232;2022-11-24T03:17:03;51826.31;;;-142.34;28.35
12951;BME280;6540;50.858;7.232;2022-11-24T03:19:28;51842.44;;;-142.34;28.12
12951;BME280;6540;50.858;7.232;2022-11-24T03:21:54;51808.16;;;-142.34;28.14
12951;BME280;6540;50.858;7.232;2022-11-24T03:24:19;51830.34;;;-142.34;27.78
12951;BME280;6540;50.858;7.232;2022-11-24T03:26:44;51796.03;;;-142.34;28.32
12951;BME280;6540;50.858;7.232;2022-11-24T03:29:10;51824.28;;;-142.34;28.23
12951;BME280;6540;50.858;7.232;2022-11-24T03:31:35;51794.03;;;-142.34;28.14
12951;BME280;6540;50.858;7.232;2022-11-24T03:34:01;51850.50;;;-142.34;28.13
12951;BME280;6540;50.858;7.232;2022-11-24T03:36:26;51836.38;;;-142.34;28.42
12951;BME280;6540;50.858;7.232;2022-11-24T03:38:51;51832.34;;;-142.34;27.86
12951;BME280;6540;50.858;7.232;2022-11-24T03:41:17;51838.41;;;-142.34;28.45
12951;BME280;6540;50.858;7.232;2022-11-24T03:43:42;51802.09;;;-142.34;28.07
12951;BME280;6540;50.858;7.232;2022-11-24T03:46:08;51816.22;;;-142.34;28.39
12951;BME280;6540;50.858;7.232;2022-11-24T03:48:33;51814.19;;;-142.34;28.35
12951;BME280;6540;50.858;7.232;2022-11-24T03:50:59;51840.41;;;-142.34;28.05
12951;BME280;6540;50.858;7.232;2022-11-24T03:53:28;51834.38;;;-142.34;29.00
12951;BME280;6540;50.858;7.232;2022-11-24T03:55:54;51787.97;;;-142.34;28.58
12951;BME280;6540;50.858;7.232;2022-11-24T03:58:19;51810.16;;;-142.34;28.99
12951;BME280;6540;50.858;7.232;2022-11-24T04:00:47;51844.47;;;-142.34;29.34
12951;BME280;6540;50.858;7.232;2022-11-24T04:03:12;51854.53;;;-142.34;29.68
12951;BME280;6540;50.858;7.232;2022-11-24T04:05:37;51814.19;;;-142.34;29.50
12951;BME280;6540;50.858;7.232;2022-11-24T04:08:03;51814.19;;;-142.34;30.35
12951;BME280;6540;50.858;7.232;2022-11-24T04:10:30;51826.31;;;-142.34;29.57
12951;BME280;6540;50.858;7.232;2022-11-24T04:12:56;51846.47;;;-142.34;29.85
12951;BME280;6540;50.858;7.232;2022-11-24T04:15:22;51818.22;;;-142.34;29.07
12951;BME280;6540;50.858;7.232;2022-11-24T04:17:48;51800.06;;;-142.34;30.18
12951;BME280;6540;50.858;7.232;2022-11-24T04:20:14;51806.13;;;-142.34;30.36
12951;BME280;6540;50.858;7.232;2022-11-24T04:22:40;51846.47;;;-142.34;29.61
12951;BME280;6540;50.858;7.232;2022-11-24T04:25:06;51802.09;;;-142.34;29.56
12951;BME280;6540;50.858;7.232;2022-11-24T04:27:33;51800.06;;;-142.34;28.92
12951;BME280;6540;50.858;7.232;2022-11-24T04:29:59;51820.25;;;-142.34;29.04
12951;BME280;6540;50.858;7.232;2022-11-24T04:32:24;51798.06;;;-142.34;28.80
12951;BME280;6540;50.858;7.232;2022-11-24T04:34:49;51783.94;;;-142.34;28.84
12951;BME280;6540;50.858;7.232;2022-11-24T04:37:15;51804.13;;;-142.34;28.47
12951;BME280;6540;50.858;7.232;2022-11-24T04:39:42;51794.03;;;-142.34;28.93
12951;BME280;6540;50.858;7.232;2022-11-24T04:42:09;51765.78;;;-142.34;28.75
12951;BME280;6540;50.858;7.232;2022-11-24T04:44:34;51783.94;;;-142.34;28.61
12951;BME280;6540;50.858;7.232;2022-11-24T04:47:00;51804.13;;;-142.34;29.24
12951;BME280;6540;50.858;7.232;2022-11-24T04:49:25;51785.94;;;-142.34;28.19
12951;BME280;6540;50.858;7.232;2022-11-24T04:51:50;51787.97;;;-142.34;28.63
12951;BME280;6540;50.858;7.232;2022-11-24T04:54:16;51763.75;;;-142.34;28.20
12951;BME280;6540;50.858;7.232;2022-11-24T04:56:42;51773.84;;;-142.34;29.40
12951;BME280;6540;50.858;7.232;2022-11-24T04:59:14;51785.94;;;-142.34;28.29
12951;BME280;6540;50.858;7.232;2022-11-24T05:01:40;51769.81;;;-142.34;28.46
12951;BME280;6540;50.858;7.232;2022-11-24T05:04:07;51781.91;;;-142.34;28.34
12951;BME280;6540;50.858;7.232;2022-11-24T05:06:34;51771.84;;;-142.34;28.19
12951;BME280;6540;50.858;7.232;2022-11-24T05:08:59;51781.91;;;-142.34;28.22
12951;BME280;6540;50.858;7.232;2022-11-24T05:11:25;51777.88;;;-142.34;28.66
12951;BME280;6540;50.858;7.232;2022-11-24T05:13:52;51735.53;;;-142.34;29.17
12951;BME280;6540;50.858;7.232;2022-11-24T05:16:17;51763.75;;;-142.34;28.78
12951;BME280;6540;50.858;7.232;2022-11-24T05:18:42;51773.84;;;-142.34;28.50
12951;BME280;6540;50.858;7.232;2022-11-24T05:21:08;51769.81;;;-142.34;28.32
12951;BME280;6540;50.858;7.232;2022-11-24T05:23:33;51781.91;;;-142.34;28.32
12951;BME280;6540;50.858;7.232;2022-11-24T05:25:59;51749.66;;;-142.34;28.50
12951;BME280;6540;50.858;7.232;2022-11-24T05:28:25;51765.78;;;-142.34;28.36
12951;BME280;6540;50.858;7.232;2022-11-24T05:30:51;51785.94;;;-142.34;28.09
12951;BME280;6540;50.858;7.232;2022-11-24T05:33:16;51743.59;;;-142.34;28.44
12951;BME280;6540;50.858;7.232;2022-11-24T05:35:46;51761.75;;;-142.34;28.63
12951;BME280;6540;50.858;7.232;2022-11-24T05:38:16;51749.66;;;-142.34;27.96
12951;BME280;6540;50.858;7.232;2022-11-24T05:40:42;51729.47;;;-142.34;28.29
12951;BME280;6540;50.858;7.232;2022-11-24T05:43:12;51705.25;;;-142.34;28.01
12951;BME280;6540;50.858;7.232;2022-11-24T05:45:37;51765.78;;;-142.34;28.55
12951;BME280;6540;50.858;7.232;2022-11-24T05:48:05;51745.59;;;-142.34;27.78
12951;BME280;6540;50.858;7.232;2022-11-24T05:50:30;51729.47;;;-142.34;27.75
12951;BME280;6540;50.858;7.232;2022-11-24T05:53:00;51713.34;;;-142.34;27.80
12951;BME280;6540;50.858;7.232;2022-11-24T05:55:26;51753.69;;;-142.34;27.97
12951;BME280;6540;50.858;7.232;2022-11-24T05:57:57;51727.44;;;-142.34;27.66
12951;BME280;6540;50.858;7.232;2022-11-24T06:00:22;51741.56;;;-142.34;28.04
12951;BME280;6540;50.858;7.232;2022-11-24T06:02:48;51749.66;;;-142.34;28.25
12951;BME280;6540;50.858;7.232;2022-11-24T06:05:13;51741.56;;;-142.34;27.97
12951;BME280;6540;50.858;7.232;2022-11-24T06:07:38;51777.88;;;-142.34;28.30
12951;BME280;6540;50.858;7.232;2022-11-24T06:10:04;51765.78;;;-142.34;28.46
12951;BME280;6540;50.858;7.232;2022-11-24T06:12:29;51745.59;;;-142.34;28.68
12951;BME280;6540;50.858;7.232;2022-11-24T06:14:55;51757.72;;;-142.34;28.35
12951;BME280;6540;50.858;7.232;2022-11-24T06:17:20;51743.59;;;-142.34;28.18
12951;BME280;6540;50.858;7.232;2022-11-24T06:19:45;51765.78;;;-142.34;28.02
12951;BME280;6540;50.858;7.232;2022-11-24T06:22:14;51743.59;;;-142.34;28.32
12951;BME280;6540;50.858;7.232;2022-11-24T06:24:39;51739.56;;;-142.34;29.05
12951;BME280;6540;50.858;7.232;2022-11-24T06:27:05;51777.88;;;-142.34;29.28
12951;BME280;6540;50.858;7.232;2022-11-24T06:29:30;51779.91;;;-142.34;29.90
12951;BME280;6540;50.858;7.232;2022-11-24T06:31:56;51783.94;;;-142.34;28.98
12951;BME280;6540;50.858;7.232;2022-11-24T06:34:21;51737.53;;;-142.34;28.29
12951;BME280;6540;50.858;7.232;2022-11-24T06:36:48;51725.44;;;-142.34;28.46
12951;BME280;6540;50.858;7.232;2022-11-24T06:39:14;51725.44;;;-142.34;28.04
12951;BME280;6540;50.858;7.232;2022-11-24T06:41:39;51761.75;;;-142.34;27.95
12951;BME280;6540;50.858;7.232;2022-11-24T06:44:04;51733.50;;;-142.34;28.32
12951;BME280;6540;50.858;7.232;2022-11-24T06:46:30;51725.44;;;-142.34;27.92
12951;BME280;6540;50.858;7.232;2022-11-24T06:48:55;51745.59;;;-142.34;28.10
12951;BME280;6540;50.858;7.232;2022-11-24T06:51:21;51733.50;;;-142.34;27.92
12951;BME280;6540;50.858;7.232;2022-11-24T06:53:46;51729.47;;;-142.34;28.07
12951;BME280;6540;50.858;7.232;2022-11-24T06:56:13;51711.31;;;-142.34;28.02
12951;BME280;6540;50.858;7.232;2022-11-24T06:58:52;51731.50;;;-142.34;27.70
12951;BME280;6540;50.858;7.232;2022-11-24T07:01:25;51739.56;;;-142.34;27.74
12951;BME280;6540;50.858;7.232;2022-11-24T07:03:52;51741.56;;;-142.34;28.11
12951;BME280;6540;50.858;7.232;2022-11-24T07:06:18;51741.56;;;-142.34;28.46
12951;BME280;6540;50.858;7.232;2022-11-24T07:08:45;51719.38;;;-142.34;28.07
12951;BME280;6540;50.858;7.232;2022-11-24T07:11:13;51745.59;;;-142.34;28.37
12951;BME280;6540;50.858;7.232;2022-11-24T07:13:43;51729.47;;;-142.34;28.05
12951;BME280;6540;50.858;7.232;2022-11-24T07:16:20;51741.56;;;-142.34;28.33
12951;BME280;6540;50.858;7.232;2022-11-24T07:18:47;51709.31;;;-142.34;28.20
12951;BME280;6540;50.858;7.232;2022-11-24T07:21:14;51757.72;;;-142.34;28.29
12951;BME280;6540;50.858;7.232;2022-11-24T07:23:40;51737.53;;;-142.34;28.17
12951;BME280;6540;50.858;7.232;2022-11-24T07:26:06;51701.22;;;-142.34;28.66
12951;BME280;6540;50.858;7.232;2022-11-24T07:28:33;51739.56;;;-142.34;28.44
12951;BME280;6540;50.858;7.232;2022-11-24T07:30:58;51753.69;;;-142.34;28.29
12951;BME280;6540;50.858;7.232;2022-11-24T07:33:24;51741.56;;;-142.34;28.27
12951;BME280;6540;50.858;7.232;2022-11-24T07:35:53;51753.69;;;-142.34;28.06
12951;BME280;6540;50.858;7.232;2022-11-24T07:38:19;51745.59;;;-142.34;28.32
12951;BME280;6540;50.858;7.232;2022-11-24T07:40:45;51725.44;;;-142.34;28.14
12951;BME280;6540;50.858;7.232;2022-11-24T07:43:11;51727.44;;;-142.34;28.33
12951;BME280;6540;50.858;7.232;2022-11-24T07:45:36;51743.59;;;-142.34;28.23
12951;BME280;6540;50.858;7.232;2022-11-24T07:48:02;51735.53;;;-142.34;28.33
12951;BME280;6540;50.858;7.232;2022-11-24T07:50:27;51727.44;;;-142.34;28.31
12951;BME280;6540;50.858;7.232;2022-11-24T07:52:53;51749.66;;;-142.34;27.88
12951;BME280;6540;50.858;7.232;2022-11-24T07:55:18;51741.56;;;-142.34;28.34
12951;BME280;6540;50.858;7.232;2022-11-24T07:57:43;51739.56;;;-142.34;28.08
12951;BME280;6540;50.858;7.232;2022-11-24T08:00:09;51733.50;;;-142.34;28.44
12951;BME280;6540;50.858;7.232;2022-11-24T08:02:35;51755.69;;;-142.34;28.37
12951;BME280;6540;50.858;7.232;2022-11-24T08:05:00;51729.47;;;-142.34;28.10
12951;BME280;6540;50.858;7.232;2022-11-24T08:07:26;51757.72;;;-142.34;28.59
12951;BME280;6540;50.858;7.232;2022-11-24T08:09:51;51767.81;;;-142.34;28.07
12951;BME280;6540;50.858;7.232;2022-11-24T08:12:18;51737.53;;;-142.34;28.50
12951;BME280;6540;50.858;7.232;2022-11-24T08:14:49;51741.56;;;-142.34;28.24
12951;BME280;6540;50.858;7.232;2022-11-24T08:17:16;51747.63;;;-142.34;28.80
12951;BME280;6540;50.858;7.232;2022-11-24T08:19:42;51757.72;;;-142.34;28.50
12951;BME280;6540;50.858;7.232;2022-11-24T08:22:07;51753.69;;;-142.34;28.25
12951;BME280;6540;50.858;7.232;2022-11-24T08:24:33;51725.44;;;-142.34;28.48
12951;BME280;6540;50.858;7.232;2022-11-24T08:26:58;51733.50;;;-142.34;28.50
12951;BME280;6540;50.858;7.232;2022-11-24T08:29:28;51695.19;;;-142.34;28.32
12951;BME280;6540;50.858;7.232;2022-11-24T08:31:54;51737.53;;;-142.34;28.26
12951;BME280;6540;50.858;7.232;2022-11-24T08:34:22;51731.50;;;-142.34;28.46
12951;BME280;6540;50.858;7.232;2022-11-24T08:36:47;51733.50;;;-142.34;28.74
12951;BME280;6540;50.858;7.232;2022-11-24T08:39:13;51725.44;;;-142.34;28.51
12951;BME280;6540;50.858;7.232;2022-11-24T08:41:38;51733.50;;;-142.34;28.18
12951;BME280;6540;50.858;7.232;2022-11-24T08:44:03;51735.53;;;-142.34;28.73
12951;BME280;6540;50.858;7.232;2022-11-24T08:46:29;51759.72;;;-142.34;28.44
12951;BME280;6540;50.858;7.232;2022-11-24T08:48:54;51781.91;;;-142.34;29.74
12951;BME280;6540;50.858;7.232;2022-11-24T08:51:22;51709.31;;;-142.34;29.24
12951;BME280;6540;50.858;7.232;2022-11-24T08:53:48;51798.06;;;-142.34;29.03
12951;BME280;6540;50.858;7.232;2022-11-24T08:56:13;51745.59;;;-142.34;28.57
12951;BME280;6540;50.858;7.232;2022-11-24T08:58:39;51723.41;;;-142.34;28.43
12951;BME280;6540;50.858;7.232;2022-11-24T09:01:11;51707.28;;;-142.34;28.33
12951;BME280;6540;50.858;7.232;2022-11-24T09:03:37;51721.41;;;-142.34;28.45
12951;BME280;6540;50.858;7.232;2022-11-24T09:06:04;51749.66;;;-142.34;28.49
12951;BME280;6540;50.858;7.232;2022-11-24T09:08:31;51713.34;;;-142.34;28.46
12951;BME280;6540;50.858;7.232;2022-11-24T09:11:07;51767.81;;;-142.34;28.80
12951;BME280;6540;50.858;7.232;2022-11-24T09:13:33;51735.53;;;-142.34;29.39
12951;BME280;6540;50.858;7.232;2022-11-24T09:16:07;51717.38;;;-142.34;28.51
12951;BME280;6540;50.858;7.232;2022-11-24T09:18:33;51761.75;;;-142.34;28.94
12951;BME280;6540;50.858;7.232;2022-11-24T09:21:06;51721.41;;;-142.34;28.42
12951;BME280;6540;50.858;7.232;2022-11-24T09:23:32;51753.69;;;-142.34;28.58
12951;BME280;6540;50.858;7.232;2022-11-24T09:28:48;51757.72;;;-142.34;28.80
12951;BME280;6540;50.858;7.232;2022-11-24T09:31:16;51719.38;;;-142.34;28.70
12951;BME280;6540;50.858;7.232;2022-11-24T09:33:42;51721.41;;;-142.34;28.24
12951;BME280;6540;50.858;7.232;2022-11-24T09:36:08;51721.41;;;-142.34;28.53
12951;BME280;6540;50.858;7.232;2022-11-24T09:38:34;51717.38;;;-142.34;28.44
12951;BME280;6540;50.858;7.232;2022-11-24T09:41:31;51693.16;;;-142.34;28.04
12951;BME280;6540;50.858;7.232;2022-11-24T09:44:06;51707.28;;;-142.34;28.06
12951;BME280;6540;50.858;7.232;2022-11-24T09:52:08;51719.38;;;-142.34;28.97
12951;BME280;6540;50.858;7.232;2022-11-24T09:54:43;51725.44;;;-142.34;28.55
12951;BME280;6540;50.858;7.232;2022-11-24T09:57:10;51741.56;;;-142.34;28.58
12951;BME280;6540;50.858;7.232;2022-11-24T09:59:39;51735.53;;;-142.34;28.47
12951;BME280;6540;50.858;7.232;2022-11-24T10:02:09;51693.16;;;-142.34;27.95
12951;BME280;6540;50.858;7.232;2022-11-24T10:04:44;51757.72;;;-142.34;28.75
12951;BME280;6540;50.858;7.232;2022-11-24T10:17:50;51745.59;;;-142.34;29.40
12951;BME280;6540;50.858;7.232;2022-11-24T10:25:55;51713.34;;;-142.34;27.71
12951;BME280;6540;50.858;7.232;2022-11-24T10:28:42;51697.19;;;-142.34;27.96
12951;BME280;6540;50.858;7.232;2022-11-24T10:31:35;51735.53;;;-142.34;29.09
12951;BME280;6540;50.858;7.232;2022-11-24T10:34:15;51693.16;;;-142.34;27.94
12951;BME280;6540;50.858;7.232;2022-11-24T10:44:43;51733.50;;;-142.34;28.00
12951;BME280;6540;50.858;7.232;2022-11-24T10:47:19;51733.50;;;-142.34;28.58
12951;BME280;6540;50.858;7.232;2022-11-24T10:50:20;51713.34;;;-142.34;29.34
12951;BME280;6540;50.858;7.232;2022-11-24T10:52:54;51719.38;;;-142.34;29.48
12951;BME280;6540;50.858;7.232;2022-11-24T10:55:20;51725.44;;;-142.34;28.58
12951;BME280;6540;50.858;7.232;2022-11-24T10:57:45;51725.44;;;-142.34;27.84
12951;BME280;6540;50.858;7.232;2022-11-24T11:02:47;51731.50;;;-142.34;29.58
12951;BME280;6540;50.858;7.232;2022-11-24T11:08:10;51769.81;;;-142.34;29.68
12951;BME280;6540;50.858;7.232;2022-11-24T11:10:43;51753.69;;;-142.34;29.14
12951;BME280;6540;50.858;7.232;2022-11-24T11:13:28;51759.72;;;-142.34;29.22
12951;BME280;6540;50.858;7.232;2022-11-24T11:15:56;51792.00;;;-142.34;31.01
12951;BME280;6540;50.858;7.232;2022-11-24T11:18:29;51763.75;;;-142.34;28.97
12951;BME280;6540;50.858;7.232;2022-11-24T11:20:57;51745.59;;;-142.34;28.26
12951;BME280;6540;50.858;7.232;2022-11-24T11:23:35;51749.66;;;-142.34;29.66
12951;BME280;6540;50.858;7.232;2022-11-24T11:26:17;51749.66;;;-142.34;29.24
12951;BME280;6540;50.858;7.232;2022-11-24T11:31:27;51741.56;;;-142.34;28.66
12951;BME280;6540;50.858;7.232;2022-11-24T11:36:23;51729.47;;;-142.34;27.54
12951;BME280;6540;50.858;7.232;2022-11-24T11:38:49;51765.78;;;-142.34;28.39
12951;BME280;6540;50.858;7.232;2022-11-24T11:41:26;51745.59;;;-142.34;28.37
12951;BME280;6540;50.858;7.232;2022-11-24T11:44:13;51753.69;;;-142.34;27.81
12951;BME280;6540;50.858;7.232;2022-11-24T11:46:43;51810.16;;;-142.34;28.85
12951;BME280;6540;50.858;7.232;2022-11-24T11:49:10;51761.75;;;-142.34;28.74
12951;BME280;6540;50.858;7.232;2022-11-24T11:51:46;51735.53;;;-142.34;27.47
12951;BME280;6540;50.858;7.232;2022-11-24T11:57:10;51725.44;;;-142.34;27.69
12951;BME280;6540;50.858;7.232;2022-11-24T12:04:59;51721.41;;;-142.34;26.94
12951;BME280;6540;50.858;7.232;2022-11-24T12:07:41;51677.03;;;-142.34;26.75
12951;BME280;6540;50.858;7.232;2022-11-24T12:10:22;51721.41;;;-142.34;27.21
12951;BME280;6540;50.858;7.232;2022-11-24T12:29:28;51735.53;;;-142.34;27.95
12951;BME280;6540;50.858;7.232;2022-11-24T12:40:22;51741.56;;;-142.34;27.19
12951;BME280;6540;50.858;7.232;2022-11-24T12:46:17;51765.78;;;-142.34;27.48
12951;BME280;6540;50.858;7.232;2022-11-24T12:51:34;51673.00;;;-142.34;26.46
12951;BME280;6540;50.858;7.232;2022-11-24T12:54:07;51675.00;;;-142.34;26.61
12951;BME280;6540;50.858;7.232;2022-11-24T13:05:11;51711.31;;;-142.34;26.86
12951;BME280;6540;50.858;7.232;2022-11-24T13:07:48;51699.22;;;-142.34;26.51
12951;BME280;6540;50.858;7.232;2022-11-24T13:13:08;51656.84;;;-142.34;25.47
12951;BME280;6540;50.858;7.232;2022-11-24T13:16:10;51713.34;;;-142.34;25.88
12951;BME280;6540;50.858;7.232;2022-11-24T13:21:30;51689.13;;;-142.34;26.62
12951;BME280;6540;50.858;7.232;2022-11-24T13:29:37;51719.38;;;-142.34;26.68
12951;BME280;6540;50.858;7.232;2022-11-24T13:37:46;51725.44;;;-142.34;26.56
12951;BME280;6540;50.858;7.232;2022-11-24T13:53:35;51727.44;;;-142.34;27.00
12951;BME280;6540;50.858;7.232;2022-11-24T14:03:58;51713.34;;;-142.34;25.95
12951;BME280;6540;50.858;7.232;2022-11-24T14:06:41;51729.47;;;-142.34;27.56
12951;BME280;6540;50.858;7.232;2022-11-24T14:12:16;51699.22;;;-142.34;25.90
12951;BME280;6540;50.858;7.232;2022-11-24T14:14:44;51695.19;;;-142.34;26.28
12951;BME280;6540;50.858;7.232;2022-11-24T14:19:47;51701.22;;;-142.34;26.74
12951;BME280;6540;50.858;7.232;2022-11-24T14:24:45;51693.16;;;-142.34;26.58
12951;BME280;6540;50.858;7.232;2022-11-24T14:27:16;51685.09;;;-142.34;25.91
12951;BME280;6540;50.858;7.232;2022-11-24T14:29:52;51717.38;;;-142.34;26.73
12951;BME280;6540;50.858;7.232;2022-11-24T14:32:17;51727.44;;;-142.34;26.39
12951;BME280;6540;50.858;7.232;2022-11-24T14:34:43;51648.78;;;-142.34;25.21
12951;BME280;6540;50.858;7.232;2022-11-24T14:37:09;51650.81;;;-142.34;25.45
12951;BME280;6540;50.858;7.232;2022-11-24T14:39:40;51673.00;;;-142.34;25.27
12951;BME280;6540;50.858;7.232;2022-11-24T14:49:56;51666.94;;;-142.34;26.49
12951;BME280;6540;50.858;7.232;2022-11-24T14:52:23;51668.97;;;-142.34;26.22
12951;BME280;6540;50.858;7.232;2022-11-24T14:54:53;51699.22;;;-142.34;26.12
12951;BME280;6540;50.858;7.232;2022-11-24T15:02:52;51707.28;;;-142.34;26.73
12951;BME280;6540;50.858;7.232;2022-11-24T15:05:20;51685.09;;;-142.34;26.92
12951;BME280;6540;50.858;7.232;2022-11-24T15:07:48;51687.09;;;-142.34;27.29
12951;BME280;6540;50.858;7.232;2022-11-24T15:10:33;51713.34;;;-142.34;27.75
12951;BME280;6540;50.858;7.232;2022-11-24T15:13:03;51721.41;;;-142.34;27.27
12951;BME280;6540;50.858;7.232;2022-11-24T15:15:35;51701.22;;;-142.34;27.34
12951;BME280;6540;50.858;7.232;2022-11-24T15:18:02;51656.84;;;-142.34;27.09
12951;BME280;6540;50.858;7.232;2022-11-24T15:20:38;51689.13;;;-142.34;26.74
12951;BME280;6540;50.858;7.232;2022-11-24T15:23:25;51685.09;;;-142.34;26.71
12951;BME280;6540;50.858;7.232;2022-11-24T15:25:54;51705.25;;;-142.34;26.80
12951;BME280;6540;50.858;7.232;2022-11-24T15:28:20;51733.50;;;-142.34;27.77
12951;BME280;6540;50.858;7.232;2022-11-24T15:30:51;51713.34;;;-142.34;27.32
12951;BME280;6540;50.858;7.232;2022-11-24T15:33:18;51735.53;;;-142.34;27.78